Time;durP1;ratioP1;P1;durP2;ratioP2;P2;SDS_P1;SDS_P2;PMS_P1;PMS_P2;Temp;Humidity;BMP_temperature;BMP_pressure;BME280_temperature;BME280_humidity;BME280_pressure;Samples;Min_cycle;Max_cycle;Signal;HPM_P1;HPM_P2
2023/04/02 00:02:20;;;;;;;1.60;0.40;;;27.50;22.60;;;;;;5048946;28;20090;-64
2023/04/02 00:05:15;;;;;;;1.45;0.80;;;27.40;21.90;;;;;;5050057;28;20111;-64
2023/04/02 00:07:43;;;;;;;2.10;1.20;;;27.30;22.20;;;;;;5049242;28;20089;-63
2023/04/02 00:10:39;;;;;;;9.27;4.93;;;27.30;22.70;;;;;;5052336;28;20063;-66
2023/04/02 00:13:31;;;;;;;4.32;0.93;;;27.30;23.40;;;;;;5049413;28;20123;-62
2023/04/02 00:15:59;;;;;;;2.13;1.40;;;27.30;23.60;;;;;;5050250;28;20108;-67
2023/04/02 00:18:26;;;;;;;4.68;1.60;;;27.20;23.00;;;;;;5048694;28;20106;-62
2023/04/02 00:21:16;;;;;;;5.00;0.80;;;27.20;23.80;;;;;;5047222;28;20094;-62
2023/04/02 00:23:43;;;;;;;1.55;0.68;;;27.30;23.70;;;;;;5045172;28;20073;-65
2023/04/02 00:26:33;;;;;;;1.02;0.60;;;27.40;23.60;;;;;;5050460;28;20085;-64
2023/04/02 00:29:01;;;;;;;5.07;0.60;;;27.30;23.00;;;;;;5056254;28;20067;-64
2023/04/02 00:31:29;;;;;;;5.80;1.08;;;27.30;23.50;;;;;;5048462;28;20076;-63
2023/04/02 00:33:58;;;;;;;2.58;1.08;;;27.40;23.40;;;;;;5055472;28;20159;-62
2023/04/02 00:36:28;;;;;;;2.13;0.80;;;27.50;23.50;;;;;;5054374;28;20451;-63
2023/04/02 00:38:58;;;;;;;2.78;0.60;;;27.20;23.70;;;;;;5053676;28;20106;-65
2023/04/02 00:41:28;;;;;;;1.02;0.60;;;27.10;24.20;;;;;;5058078;28;20065;-63
2023/04/02 00:43:59;;;;;;;3.60;0.60;;;27.10;24.20;;;;;;5051417;28;20068;-63
2023/04/02 00:46:45;;;;;;;2.80;0.80;;;26.80;24.10;;;;;;5052541;28;20177;-64
2023/04/02 00:49:34;;;;;;;2.00;0.77;;;26.70;24.10;;;;;;5059153;28;20070;-63
2023/04/02 00:52:22;;;;;;;2.75;1.00;;;26.70;24.60;;;;;;5055397;28;20216;-64
2023/04/02 00:55:04;;;;;;;2.45;1.02;;;26.50;24.30;;;;;;5055932;28;20079;-64
2023/04/02 00:57:32;;;;;;;3.30;1.08;;;26.30;24.20;;;;;;5058788;28;20106;-63
2023/04/02 01:00:21;;;;;;;4.07;1.30;;;26.30;24.20;;;;;;5055920;28;20135;-64
2023/04/02 01:03:27;;;;;;;1.88;0.98;;;26.50;24.70;;;;;;5052421;28;20103;-63
2023/04/02 01:06:13;;;;;;;3.42;0.90;;;26.50;24.30;;;;;;5030680;28;20623;-64
2023/04/02 01:08:59;;;;;;;1.58;0.98;;;26.50;24.60;;;;;;5040732;28;20097;-64
2023/04/02 01:11:46;;;;;;;3.45;1.00;;;26.30;24.10;;;;;;5033496;28;20571;-64
2023/04/02 01:14:40;;;;;;;4.55;0.95;;;26.20;24.90;;;;;;5034808;28;20074;-59
2023/04/02 01:17:07;;;;;;;2.15;0.80;;;26.00;23.80;;;;;;5034844;28;20174;-64
2023/04/02 01:20:00;;;;;;;1.45;1.10;;;25.90;23.00;;;;;;5031576;28;20081;-64
2023/04/02 01:22:48;;;;;;;2.25;1.80;;;25.80;22.90;;;;;;5032118;28;20065;-65
2023/04/02 01:25:31;;;;;;;5.20;2.75;;;25.50;22.10;;;;;;5035338;28;20073;-63
2023/04/02 01:28:23;;;;;;;2.70;1.10;;;25.50;22.50;;;;;;5034800;28;20465;-63
2023/04/02 01:30:56;;;;;;;2.92;1.05;;;25.30;22.90;;;;;;4948442;29;20117;-64
2023/04/02 01:33:28;;;;;;;5.72;3.25;;;25.20;23.00;;;;;;4948160;29;20579;-63
2023/04/02 01:36:10;;;;;;;2.72;0.90;;;25.00;22.90;;;;;;4947734;28;20392;-66
2023/04/02 01:38:53;;;;;;;1.65;0.90;;;24.90;23.00;;;;;;4946229;29;20110;-67
2023/04/02 01:41:33;;;;;;;2.38;0.80;;;24.90;24.10;;;;;;4983036;28;20076;-66
2023/04/02 01:44:16;;;;;;;3.72;1.08;;;24.80;24.30;;;;;;4983877;28;20160;-65
2023/04/02 01:46:47;;;;;;;2.97;0.90;;;24.70;23.60;;;;;;4984569;28;20170;-66
2023/04/02 01:49:17;;;;;;;2.80;0.90;;;24.60;24.00;;;;;;4982050;28;20105;-66
2023/04/02 01:51:46;;;;;;;4.97;1.10;;;24.40;23.70;;;;;;4982303;28;20086;-66
2023/04/02 01:54:15;;;;;;;3.15;1.30;;;24.20;24.20;;;;;;4982632;28;20187;-66
2023/04/02 01:56:44;;;;;;;3.13;1.23;;;24.10;24.40;;;;;;4979545;28;20118;-64
2023/04/02 01:59:12;;;;;;;5.75;1.20;;;24.00;24.70;;;;;;4983673;28;20430;-66
2023/04/02 02:02:03;;;;;;;5.93;1.40;;;23.90;24.70;;;;;;4984757;28;20078;-65
2023/04/02 02:04:31;;;;;;;2.00;1.10;;;23.80;24.80;;;;;;4968042;28;20527;-64
2023/04/02 02:07:00;;;;;;;4.82;1.02;;;23.60;24.70;;;;;;4992123;28;20096;-64
2023/04/02 02:09:35;;;;;;;4.22;1.23;;;23.50;24.90;;;;;;5045146;28;20089;-64
2023/04/02 02:12:03;;;;;;;3.58;1.30;;;23.30;25.00;;;;;;5045753;28;20086;-62
2023/04/02 02:14:30;;;;;;;6.45;1.77;;;23.20;25.40;;;;;;5045894;28;20072;-64
2023/04/02 02:17:02;;;;;;;7.60;2.03;;;23.10;25.30;;;;;;5045758;28;20166;-63
2023/04/02 02:19:37;;;;;;;4.85;1.52;;;23.00;25.20;;;;;;5045103;28;20679;-63
2023/04/02 02:22:03;;;;;;;12.35;2.45;;;22.80;26.00;;;;;;5043868;28;20080;-64
2023/04/02 02:24:34;;;;;;;19.40;9.65;;;22.80;26.70;;;;;;5046222;28;20072;-65
2023/04/02 02:27:18;;;;;;;40.03;30.52;;;22.60;26.90;;;;;;5052151;28;20072;-64
2023/04/02 02:29:46;;;;;;;47.80;34.47;;;22.50;28.20;;;;;;5051011;28;20088;-63
2023/04/02 02:32:13;;;;;;;47.13;30.05;;;22.40;29.00;;;;;;5055183;28;20080;-63
2023/04/02 02:34:54;;;;;;;34.50;25.58;;;22.30;28.50;;;;;;5043804;28;20064;-64
2023/04/02 02:37:25;;;;;;;24.83;18.75;;;22.10;28.70;;;;;;5047817;28;20107;-63
2023/04/02 02:39:56;;;;;;;28.05;12.70;;;22.00;29.40;;;;;;5045551;28;20077;-65
2023/04/02 02:42:38;;;;;;;17.70;11.18;;;21.90;30.00;;;;;;5047001;28;20068;-65
2023/04/02 02:45:11;;;;;;;17.70;10.25;;;21.70;29.80;;;;;;5046948;28;20068;-62
2023/04/02 02:47:41;;;;;;;16.40;7.72;;;21.60;29.30;;;;;;5050288;28;20080;-63
2023/04/02 02:50:32;;;;;;;12.48;5.43;;;21.50;30.00;;;;;;5051279;28;20092;-64
2023/04/02 02:53:03;;;;;;;16.58;5.40;;;21.40;30.40;;;;;;5045944;28;20445;-64
2023/04/02 02:55:38;;;;;;;13.90;5.47;;;21.30;30.50;;;;;;5045316;28;20115;-65
2023/04/02 02:58:07;;;;;;;15.27;5.38;;;21.20;30.20;;;;;;5044643;28;20104;-63
2023/04/02 03:00:36;;;;;;;11.10;4.65;;;21.20;30.80;;;;;;5045891;28;20175;-63
2023/04/02 03:03:08;;;;;;;9.63;4.90;;;21.00;31.00;;;;;;5049364;28;20529;-64
2023/04/02 03:05:36;;;;;;;12.38;5.07;;;21.00;31.30;;;;;;5053267;28;20402;-63
2023/04/02 03:08:06;;;;;;;9.00;4.22;;;20.90;31.20;;;;;;5047123;28;20092;-64
2023/04/02 03:10:45;;;;;;;12.75;4.13;;;20.80;31.60;;;;;;5049813;28;20134;-64
2023/04/02 03:13:21;;;;;;;11.25;4.38;;;20.60;31.30;;;;;;5047202;28;20079;-65
2023/04/02 03:16:04;;;;;;;16.65;4.22;;;20.60;32.70;;;;;;5046571;28;20079;-64
2023/04/02 03:18:53;;;;;;;13.70;4.03;;;20.60;34.00;;;;;;5049759;28;20521;-64
2023/04/02 03:21:32;;;;;;;19.50;4.90;;;20.60;33.80;;;;;;5051840;28;20072;-64
2023/04/02 03:24:21;;;;;;;21.90;4.53;;;20.40;33.50;;;;;;5049349;28;20084;-65
2023/04/02 03:27:02;;;;;;;18.33;5.25;;;20.40;33.70;;;;;;5050165;28;20079;-64
2023/04/02 03:29:32;;;;;;;17.80;5.25;;;20.30;34.20;;;;;;5056796;28;20070;-65
2023/04/02 03:32:21;;;;;;;16.63;5.85;;;20.30;35.00;;;;;;5048981;28;20068;-64
2023/04/02 03:34:54;;;;;;;19.58;8.50;;;20.10;33.30;;;;;;5048946;28;20076;-63
2023/04/02 03:37:27;;;;;;;29.05;8.55;;;20.10;32.80;;;;;;5055506;28;20168;-63
2023/04/02 03:40:24;;;;;;;21.27;8.63;;;20.10;32.80;;;;;;5049355;28;20065;-64
2023/04/02 03:43:17;;;;;;;21.17;8.13;;;20.10;32.30;;;;;;5050388;28;20075;-64
2023/04/02 03:45:50;;;;;;;20.25;8.77;;;20.00;33.40;;;;;;5054353;28;20433;-64
2023/04/02 03:48:45;;;;;;;25.50;10.90;;;20.00;34.40;;;;;;5049946;28;20076;-65
2023/04/02 03:51:14;;;;;;;32.33;14.63;;;19.90;34.20;;;;;;5049735;28;20111;-65
2023/04/02 03:53:43;;;;;;;43.38;20.48;;;19.90;34.30;;;;;;5053493;28;20156;-64
2023/04/02 03:56:39;;;;;;;59.10;24.05;;;19.80;35.70;;;;;;5050600;28;20103;-64
2023/04/02 03:59:36;;;;;;;36.13;15.35;;;19.80;33.10;;;;;;5046279;28;20175;-64
2023/04/02 04:02:25;;;;;;;38.15;14.68;;;20.10;32.70;;;;;;5048951;28;20991;-64
2023/04/02 04:04:54;;;;;;;36.97;13.65;;;20.10;34.60;;;;;;5027739;28;20183;-64
2023/04/02 04:07:33;;;;;;;34.70;15.10;;;20.20;33.70;;;;;;5050651;28;20421;-64
2023/04/02 04:10:01;;;;;;;40.85;19.50;;;20.20;34.70;;;;;;5049333;28;20425;-65
2023/04/02 04:12:42;;;;;;;47.65;16.25;;;20.20;34.90;;;;;;5050691;28;20091;-65
2023/04/02 04:15:13;;;;;;;32.35;13.15;;;20.20;33.90;;;;;;5051068;28;20533;-64
2023/04/02 04:18:20;;;;;;;46.65;13.20;;;20.30;34.20;;;;;;5049094;28;20175;-64
2023/04/02 04:20:56;;;;;;;45.95;13.57;;;20.40;35.20;;;;;;5048926;28;20452;-65
2023/04/02 04:23:39;;;;;;;36.30;11.70;;;20.40;36.50;;;;;;5048676;28;20061;-65
2023/04/02 04:26:18;;;;;;;44.08;11.73;;;20.50;37.60;;;;;;5048188;28;20425;-64
2023/04/02 04:29:04;;;;;;;45.53;14.05;;;20.50;38.10;;;;;;5048039;28;20084;-65
2023/04/02 04:31:53;;;;;;;48.58;15.27;;;20.50;38.60;;;;;;5049557;28;20065;-64
2023/04/02 04:34:37;;;;;;;42.83;15.40;;;20.50;39.40;;;;;;5048648;28;20104;-65
2023/04/02 04:37:08;;;;;;;38.88;16.73;;;20.50;40.50;;;;;;5049777;28;20084;-64
2023/04/02 04:39:46;;;;;;;43.80;17.23;;;20.40;41.20;;;;;;5048658;28;20061;-68
2023/04/02 04:42:24;;;;;;;48.22;16.58;;;20.40;41.70;;;;;;5047133;28;20212;-66
2023/04/02 04:44:59;;;;;;;51.38;15.55;;;20.30;42.50;;;;;;5049871;28;20075;-64
2023/04/02 04:47:33;;;;;;;59.63;14.88;;;20.30;42.60;;;;;;5046287;28;20555;-65
2023/04/02 04:50:19;;;;;;;38.83;13.25;;;20.20;43.40;;;;;;5048230;28;20084;-64
2023/04/02 04:52:46;;;;;;;41.45;13.25;;;20.10;44.70;;;;;;5053946;28;20081;-64
2023/04/02 04:55:35;;;;;;;43.10;12.63;;;20.00;44.00;;;;;;5055378;28;20484;-62
2023/04/02 04:58:34;;;;;;;39.53;13.93;;;19.90;44.30;;;;;;5047328;28;20584;-63
2023/04/02 05:01:13;;;;;;;46.88;12.00;;;19.60;44.70;;;;;;5042893;28;20114;-64
2023/04/02 05:03:51;;;;;;;46.97;12.82;;;19.60;44.80;;;;;;5055350;28;20553;-65
2023/04/02 05:06:23;;;;;;;43.97;10.68;;;19.60;45.00;;;;;;5052840;28;20179;-62
2023/04/02 05:08:54;;;;;;;39.92;10.80;;;19.50;45.20;;;;;;5051755;28;20088;-64
2023/04/02 05:11:48;;;;;;;46.25;11.82;;;19.40;46.70;;;;;;5052586;28;20158;-62
2023/04/02 05:14:45;;;;;;;48.63;12.55;;;19.30;45.90;;;;;;5053210;28;20100;-63
2023/04/02 05:17:34;;;;;;;36.00;11.13;;;19.30;46.80;;;;;;5039706;28;20627;-62
2023/04/02 05:20:20;;;;;;;41.55;11.18;;;19.10;46.10;;;;;;5053962;28;20115;-64
2023/04/02 05:22:59;;;;;;;44.38;11.68;;;19.00;46.60;;;;;;5052633;28;20064;-63
2023/04/02 05:25:31;;;;;;;47.17;10.98;;;18.90;47.50;;;;;;5046861;28;20080;-62
2023/04/02 05:28:13;;;;;;;43.28;11.65;;;18.80;46.40;;;;;;5049289;28;20087;-63
2023/04/02 05:30:51;;;;;;;34.92;11.05;;;18.90;46.50;;;;;;5057098;28;20068;-62
2023/04/02 05:33:23;;;;;;;40.72;11.70;;;18.90;46.20;;;;;;5049380;28;20076;-64
2023/04/02 05:36:11;;;;;;;52.20;13.65;;;18.80;48.40;;;;;;5053335;28;20111;-63
2023/04/02 05:38:44;;;;;;;30.50;13.52;;;18.80;47.20;;;;;;5060071;28;20488;-64
2023/04/02 05:41:29;;;;;;;49.97;12.00;;;18.70;48.30;;;;;;5050015;28;20419;-62
2023/04/02 05:44:25;;;;;;;39.22;11.05;;;18.70;47.70;;;;;;5053480;28;20080;-61
2023/04/02 05:47:01;;;;;;;32.28;12.27;;;18.70;47.80;;;;;;5049051;28;20517;-62
2023/04/02 05:49:33;;;;;;;34.42;11.32;;;18.60;48.40;;;;;;5048269;28;20072;-63
2023/04/02 05:52:04;;;;;;;41.88;11.68;;;18.60;48.30;;;;;;5056527;28;20176;-63
2023/04/02 05:54:43;;;;;;;50.40;12.25;;;18.50;49.90;;;;;;5051130;28;20159;-64
2023/04/02 05:57:19;;;;;;;43.85;12.23;;;18.40;49.50;;;;;;5058804;28;20477;-63
2023/04/02 05:59:58;;;;;;;46.60;12.02;;;18.30;49.00;;;;;;5045767;28;20706;-61
2023/04/02 06:02:30;;;;;;;47.55;12.93;;;18.30;49.40;;;;;;5052253;28;20076;-64
2023/04/02 06:05:22;;;;;;;43.33;12.57;;;18.30;51.10;;;;;;5052319;28;20099;-63
2023/04/02 06:07:59;;;;;;;41.35;12.73;;;18.20;49.70;;;;;;5056688;28;20450;-61
2023/04/02 06:10:53;;;;;;;40.97;13.02;;;18.10;50.00;;;;;;5058159;28;20080;-64
2023/04/02 06:13:20;;;;;;;46.15;13.77;;;18.10;51.10;;;;;;5048905;28;20179;-63
2023/04/02 06:15:47;;;;;;;55.08;15.25;;;18.00;50.20;;;;;;5047392;28;20191;-61
2023/04/02 06:18:26;;;;;;;55.63;15.05;;;18.00;50.30;;;;;;5046497;28;20086;-63
2023/04/02 06:20:53;;;;;;;52.55;13.40;;;18.00;50.20;;;;;;5050267;28;20090;-65
2023/04/02 06:23:40;;;;;;;59.10;15.07;;;18.10;50.30;;;;;;5046854;28;20160;-62
2023/04/02 06:26:19;;;;;;;65.38;15.38;;;18.00;50.50;;;;;;5051638;28;20068;-63
2023/04/02 06:29:04;;;;;;;58.58;15.18;;;18.00;50.50;;;;;;5050010;28;20111;-64
2023/04/02 06:31:51;;;;;;;54.40;14.93;;;17.90;51.10;;;;;;5049947;28;20095;-64
2023/04/02 06:34:23;;;;;;;59.63;19.15;;;17.90;50.80;;;;;;5054624;28;20073;-65
2023/04/02 06:36:54;;;;;;;60.08;18.50;;;17.70;52.30;;;;;;5059833;28;20392;-64
2023/04/02 06:39:23;;;;;;;51.45;18.38;;;17.80;51.70;;;;;;5054103;28;20076;-61
2023/04/02 06:42:01;;;;;;;54.70;18.15;;;17.80;52.50;;;;;;5056069;28;20073;-63
2023/04/02 06:44:33;;;;;;;54.97;17.38;;;17.80;52.00;;;;;;5053749;28;20095;-64
2023/04/02 06:47:11;;;;;;;56.58;19.70;;;17.80;51.90;;;;;;5053528;28;20096;-64
2023/04/02 06:50:00;;;;;;;54.63;21.25;;;17.70;52.90;;;;;;5053061;28;20078;-63
2023/04/02 06:52:33;;;;;;;59.60;20.92;;;17.60;52.40;;;;;;5045484;28;20176;-63
2023/04/02 06:55:03;;;;;;;52.75;20.63;;;17.50;53.20;;;;;;5054998;28;20082;-64
2023/04/02 06:57:34;;;;;;;64.10;21.58;;;17.50;53.30;;;;;;5057328;28;20520;-64
2023/04/02 07:00:00;;;;;;;65.97;21.95;;;17.60;52.90;;;;;;5053077;28;20170;-63
2023/04/02 07:02:38;;;;;;;67.00;20.80;;;17.60;52.90;;;;;;5052250;28;20065;-64
2023/04/02 07:05:08;;;;;;;55.20;19.02;;;17.60;52.30;;;;;;5054976;28;20067;-62
2023/04/02 07:07:34;;;;;;;59.63;18.60;;;17.60;52.90;;;;;;5058788;28;20099;-65
2023/04/02 07:10:01;;;;;;;63.58;18.33;;;17.50;52.20;;;;;;5054138;28;20081;-65
2023/04/02 07:12:27;;;;;;;57.53;18.00;;;17.50;51.90;;;;;;5056214;28;20081;-63
2023/04/02 07:14:54;;;;;;;61.75;18.42;;;17.40;52.00;;;;;;5056212;28;20073;-65
2023/04/02 07:17:20;;;;;;;59.63;17.05;;;17.40;53.80;;;;;;5057508;28;20085;-64
2023/04/02 07:19:50;;;;;;;53.85;15.82;;;17.20;52.70;;;;;;5055788;28;20090;-64
2023/04/02 07:22:21;;;;;;;50.47;16.92;;;17.30;52.50;;;;;;5054959;28;20060;-65
2023/04/02 07:24:47;;;;;;;45.85;16.10;;;17.20;52.70;;;;;;5058761;28;20157;-64
2023/04/02 07:27:14;;;;;;;49.90;16.77;;;17.20;53.70;;;;;;5062204;28;20545;-64
2023/04/02 07:29:43;;;;;;;51.28;15.80;;;17.20;52.50;;;;;;5056378;28;20102;-63
2023/04/02 07:32:13;;;;;;;60.60;15.40;;;17.10;52.90;;;;;;5057888;28;20071;-65
2023/04/02 07:34:41;;;;;;;58.95;16.23;;;17.00;53.10;;;;;;5057133;28;20090;-64
2023/04/02 07:37:11;;;;;;;52.03;15.50;;;17.00;53.10;;;;;;5055106;28;20449;-65
2023/04/02 07:39:38;;;;;;;60.03;15.95;;;17.00;52.90;;;;;;5057950;28;20509;-65
2023/04/02 07:42:05;;;;;;;42.97;15.27;;;17.00;53.50;;;;;;5054293;28;20139;-65
2023/04/02 07:44:31;;;;;;;44.30;15.82;;;17.00;54.00;;;;;;5054793;28;20368;-62
2023/04/02 07:46:58;;;;;;;55.45;16.40;;;16.90;52.90;;;;;;5057306;28;20145;-64
2023/04/02 07:49:24;;;;;;;56.20;16.27;;;16.80;52.60;;;;;;5060538;28;20084;-64
2023/04/02 07:51:52;;;;;;;41.45;13.95;;;16.80;52.80;;;;;;5056588;28;20077;-64
2023/04/02 07:54:18;;;;;;;53.47;14.82;;;16.80;53.00;;;;;;5055072;28;20101;-64
2023/04/02 07:56:45;;;;;;;54.45;15.93;;;16.80;53.30;;;;;;5055073;28;20177;-64
2023/04/02 07:59:11;;;;;;;54.30;16.55;;;16.70;53.50;;;;;;5058946;28;20069;-62
2023/04/02 08:01:39;;;;;;;64.90;17.73;;;16.60;53.90;;;;;;5048346;28;20065;-64
2023/04/02 08:04:06;;;;;;;53.47;16.58;;;16.60;54.20;;;;;;5053729;28;20531;-65
2023/04/02 08:06:33;;;;;;;51.97;15.93;;;16.50;54.50;;;;;;5053998;28;20092;-63
2023/04/02 08:08:59;;;;;;;60.22;13.75;;;16.50;53.80;;;;;;5061100;28;20133;-63
2023/04/02 08:11:26;;;;;;;35.72;10.35;;;16.60;52.70;;;;;;5054515;28;20615;-64
2023/04/02 08:13:52;;;;;;;31.27;7.55;;;16.60;51.50;;;;;;5057672;28;20092;-62
2023/04/02 08:16:19;;;;;;;30.73;6.10;;;16.60;50.00;;;;;;5057977;28;20148;-63
2023/04/02 08:18:46;;;;;;;20.38;4.57;;;16.60;48.30;;;;;;5055514;28;20728;-65
2023/04/02 08:21:13;;;;;;;14.63;3.85;;;16.60;48.10;;;;;;5054964;28;20145;-63
2023/04/02 08:23:40;;;;;;;13.85;3.63;;;16.60;47.30;;;;;;5052232;28;20138;-65
2023/04/02 08:26:06;;;;;;;15.00;2.88;;;16.70;47.00;;;;;;5056866;28;20090;-62
2023/04/02 08:28:33;;;;;;;14.18;2.63;;;16.70;46.90;;;;;;5059228;28;20088;-65
2023/04/02 08:30:59;;;;;;;13.68;2.88;;;16.80;46.60;;;;;;5059132;28;20096;-63
2023/04/02 08:33:27;;;;;;;8.68;2.72;;;16.70;46.10;;;;;;5052313;28;20108;-63
2023/04/02 08:35:53;;;;;;;10.05;2.95;;;16.80;46.70;;;;;;5055614;28;20552;-63
2023/04/02 08:38:22;;;;;;;7.90;2.42;;;16.70;46.80;;;;;;5053550;28;20565;-64
2023/04/02 08:40:53;;;;;;;7.40;2.65;;;16.70;46.70;;;;;;5056802;28;20079;-62
2023/04/02 08:43:29;;;;;;;5.95;2.47;;;16.60;47.00;;;;;;5061971;28;20061;-64
2023/04/02 08:46:11;;;;;;;12.70;2.70;;;16.70;47.40;;;;;;5058833;28;20527;-63
2023/04/02 08:48:42;;;;;;;8.70;2.60;;;16.50;47.70;;;;;;5054391;28;20560;-63
2023/04/02 08:51:22;;;;;;;7.28;2.88;;;16.40;49.60;;;;;;5056247;28;20106;-64
2023/04/02 08:53:50;;;;;;;11.27;3.20;;;16.30;49.30;;;;;;5058017;28;20124;-64
2023/04/02 08:56:28;;;;;;;10.18;2.67;;;16.20;50.20;;;;;;5053870;28;20089;-63
2023/04/02 08:58:58;;;;;;;12.18;3.92;;;16.10;50.50;;;;;;5054508;28;20072;-63
2023/04/02 09:01:47;;;;;;;15.68;3.65;;;16.10;49.90;;;;;;5052510;28;20084;-65
2023/04/02 09:04:17;;;;;;;9.70;3.80;;;16.10;49.60;;;;;;5055014;28;20582;-64
2023/04/02 09:06:46;;;;;;;11.57;3.60;;;16.10;49.60;;;;;;5055754;28;20164;-64
2023/04/02 09:09:14;;;;;;;18.98;4.18;;;16.10;49.80;;;;;;5053975;28;20089;-63
2023/04/02 09:12:01;;;;;;;11.05;4.78;;;16.10;49.90;;;;;;5056962;28;20139;-64
2023/04/02 09:15:10;;;;;;;11.90;4.80;;;16.00;50.90;;;;;;5057311;28;20077;-66
2023/04/02 09:17:38;;;;;;;23.02;6.93;;;16.00;50.40;;;;;;5056757;28;20535;-65
2023/04/02 09:20:16;;;;;;;21.42;7.93;;;15.90;51.90;;;;;;5054490;28;20535;-65
2023/04/02 09:22:46;;;;;;;25.85;9.00;;;15.90;51.80;;;;;;5057094;28;20514;-63
2023/04/02 09:25:17;;;;;;;21.52;8.35;;;15.80;52.30;;;;;;5058345;28;20069;-63
2023/04/02 09:27:48;;;;;;;38.65;11.40;;;15.70;52.30;;;;;;5058472;28;20080;-64
2023/04/02 09:30:31;;;;;;;26.67;10.77;;;15.80;51.50;;;;;;5055392;28;20069;-65
2023/04/02 09:33:06;;;;;;;26.33;8.85;;;15.80;51.50;;;;;;5055374;28;20079;-65
2023/04/02 09:35:36;;;;;;;24.52;9.23;;;15.70;53.10;;;;;;5056593;28;20084;-63
2023/04/02 09:38:31;;;;;;;24.73;8.70;;;15.60;52.90;;;;;;5054159;28;20086;-64
2023/04/02 09:41:06;;;;;;;24.50;8.77;;;15.50;51.90;;;;;;5055600;28;20085;-63
2023/04/02 09:43:36;;;;;;;21.50;7.85;;;15.40;52.00;;;;;;5056562;28;20548;-63
2023/04/02 09:46:15;;;;;;;18.02;8.23;;;15.40;53.40;;;;;;5057416;28;20081;-65
2023/04/02 09:49:01;;;;;;;23.85;8.15;;;15.40;54.10;;;;;;5055215;28;20073;-62
2023/04/02 09:51:35;;;;;;;15.70;7.43;;;15.40;53.30;;;;;;5055411;28;20065;-63
2023/04/02 09:54:11;;;;;;;22.63;7.88;;;15.30;52.90;;;;;;5055634;28;20407;-63
2023/04/02 09:56:58;;;;;;;24.17;6.60;;;15.20;54.10;;;;;;5055748;28;20124;-65
2023/04/02 09:59:25;;;;;;;19.00;5.32;;;15.10;54.70;;;;;;5059444;28;20081;-63
2023/04/02 10:01:54;;;;;;;19.27;5.45;;;15.10;53.50;;;;;;5053848;28;20552;-66
2023/04/02 10:04:43;;;;;;;21.25;5.78;;;15.10;54.40;;;;;;5052084;28;20073;-65
2023/04/02 10:07:33;;;;;;;18.92;5.95;;;15.10;53.50;;;;;;5053152;28;20069;-65
2023/04/02 10:10:03;;;;;;;12.05;5.32;;;15.10;53.40;;;;;;5057208;28;20077;-64
2023/04/02 10:12:36;;;;;;;23.67;6.10;;;15.00;53.30;;;;;;5058175;28;20077;-64
2023/04/02 10:15:05;;;;;;;14.93;4.57;;;15.10;53.00;;;;;;5053048;28;20131;-64
2023/04/02 10:17:36;;;;;;;13.77;4.40;;;15.10;52.30;;;;;;5054507;28;20077;-63
2023/04/02 10:20:14;;;;;;;16.35;4.78;;;15.00;52.30;;;;;;5056195;28;20095;-64
2023/04/02 10:22:41;;;;;;;12.07;4.25;;;15.00;53.50;;;;;;5051944;28;20080;-65
2023/04/02 10:25:20;;;;;;;19.88;5.03;;;15.00;53.20;;;;;;5057681;28;20077;-65
2023/04/02 10:27:49;;;;;;;22.30;5.80;;;15.00;52.80;;;;;;5056988;28;20469;-62
2023/04/02 10:30:23;;;;;;;21.65;5.50;;;14.90;52.90;;;;;;5063687;28;20539;-63
2023/04/02 10:32:59;;;;;;;25.13;7.43;;;14.90;54.40;;;;;;5058652;28;20104;-63
2023/04/02 10:35:44;;;;;;;36.03;9.82;;;14.80;53.40;;;;;;5057093;28;20077;-64
2023/04/02 10:38:41;;;;;;;27.33;8.73;;;14.80;53.10;;;;;;5058416;28;20108;-65
2023/04/02 10:41:40;;;;;;;46.17;13.60;;;14.90;54.60;;;;;;5063167;28;20489;-64
2023/04/02 10:44:25;;;;;;;62.35;19.38;;;14.70;54.30;;;;;;5058217;28;20301;-64
2023/04/02 10:46:57;;;;;;;60.80;19.92;;;14.70;53.90;;;;;;5054347;28;20087;-62
2023/04/02 10:49:34;;;;;;;59.47;18.58;;;14.70;54.00;;;;;;5057805;28;20101;-64
2023/04/02 10:52:25;;;;;;;58.28;19.75;;;14.70;53.80;;;;;;5059107;28;20104;-65
2023/04/02 10:55:00;;;;;;;50.35;18.48;;;14.70;54.50;;;;;;5058927;28;20070;-65
2023/04/02 10:57:35;;;;;;;59.28;19.40;;;14.60;54.30;;;;;;5062645;28;20208;-64
2023/04/02 11:00:21;;;;;;;69.30;21.00;;;14.50;54.40;;;;;;5060028;28;20076;-64
2023/04/02 11:03:12;;;;;;;59.42;19.58;;;14.40;56.70;;;;;;5064363;28;20716;-62
2023/04/02 11:05:50;;;;;;;59.65;19.70;;;14.40;55.40;;;;;;5057223;28;20161;-64
2023/04/02 11:08:39;;;;;;;67.30;19.38;;;14.40;55.20;;;;;;5063013;28;20092;-64
2023/04/02 11:11:17;;;;;;;67.80;20.25;;;14.40;55.30;;;;;;5058762;28;20128;-63
2023/04/02 11:13:50;;;;;;;66.80;21.05;;;14.20;55.30;;;;;;5054642;28;20084;-66
2023/04/02 11:16:17;;;;;;;72.45;22.45;;;14.30;55.50;;;;;;5060815;28;20073;-64
2023/04/02 11:19:09;;;;;;;59.80;21.45;;;14.30;55.20;;;;;;5061780;28;20118;-65
2023/04/02 11:21:44;;;;;;;62.60;22.98;;;14.30;55.50;;;;;;5056040;28;20093;-63
2023/04/02 11:24:36;;;;;;;66.93;22.45;;;14.30;55.10;;;;;;5057380;28;20093;-64
2023/04/02 11:27:07;;;;;;;88.07;26.17;;;14.20;56.10;;;;;;5056751;28;20167;-64
2023/04/02 11:29:46;;;;;;;96.55;25.58;;;14.20;57.20;;;;;;5055100;28;20451;-63
2023/04/02 11:32:28;;;;;;;82.32;25.50;;;14.00;56.10;;;;;;5054578;28;20086;-64
2023/04/02 11:34:54;;;;;;;96.85;27.33;;;14.00;56.40;;;;;;5060519;28;20070;-64
2023/04/02 11:37:50;;;;;;;87.53;27.13;;;14.00;56.20;;;;;;5056855;28;20130;-64
2023/04/02 11:40:17;;;;;;;80.85;25.10;;;14.00;55.90;;;;;;5043284;28;21029;-64
2023/04/02 11:42:46;;;;;;;;;;;14.00;56.40;;;;;;5061176;28;20069;-63
2023/04/02 11:45:22;;;;;;;111.72;28.02;;;13.90;56.60;;;;;;5062238;28;19971;-64
2023/04/02 11:48:00;;;;;;;98.47;27.48;;;13.90;56.60;;;;;;5055107;28;20073;-63
2023/04/02 11:50:41;;;;;;;96.88;27.40;;;14.00;56.50;;;;;;5052280;28;20081;-64
2023/04/02 11:53:10;;;;;;;105.68;27.40;;;13.80;57.60;;;;;;5057135;28;20072;-65
2023/04/02 11:55:41;;;;;;;102.05;30.08;;;13.80;56.70;;;;;;5062773;28;20062;-64
2023/04/02 11:58:34;;;;;;;97.72;28.55;;;13.90;57.10;;;;;;5053966;28;20570;-62
2023/04/02 12:01:22;;;;;;;102.95;30.95;;;13.90;57.60;;;;;;5058595;28;20088;-63
2023/04/02 12:04:21;;;;;;;103.82;29.80;;;13.80;57.20;;;;;;5055273;28;20070;-64
2023/04/02 12:06:50;;;;;;;110.18;30.50;;;13.70;57.10;;;;;;5051719;28;20073;-62
2023/04/02 12:09:50;;;;;;;93.45;29.60;;;13.70;57.00;;;;;;5057529;28;20093;-64
2023/04/02 12:12:31;;;;;;;109.07;30.90;;;13.70;57.10;;;;;;5059189;28;20084;-63
2023/04/02 12:14:59;;;;;;;124.40;31.58;;;13.70;57.40;;;;;;5051910;28;21297;-63
2023/04/02 12:17:38;;;;;;;110.88;31.58;;;13.70;56.80;;;;;;5058514;28;20101;-64
2023/04/02 12:20:12;;;;;;;121.20;30.10;;;13.80;57.10;;;;;;5057747;28;20157;-63
2023/04/02 12:22:49;;;;;;;119.57;29.85;;;13.70;56.80;;;;;;5058966;28;20553;-65
2023/04/02 12:25:28;;;;;;;108.47;31.42;;;13.70;56.60;;;;;;5050669;28;20544;-65
2023/04/02 12:28:27;;;;;;;111.35;31.17;;;13.70;57.30;;;;;;5056894;28;20069;-64
2023/04/02 12:31:17;;;;;;;107.40;31.58;;;13.60;57.20;;;;;;5039136;28;20081;-63
2023/04/02 12:33:45;;;;;;;104.35;33.40;;;13.60;58.10;;;;;;5034439;28;20104;-62
2023/04/02 12:36:13;;;;;;;102.53;31.52;;;13.60;58.50;;;;;;5029372;28;20172;-64
2023/04/02 12:38:47;;;;;;;117.20;33.45;;;13.50;57.90;;;;;;5035449;28;20090;-63
2023/04/02 12:41:28;;;;;;;125.30;35.15;;;13.50;57.60;;;;;;5033120;28;20094;-62
2023/04/02 12:44:01;;;;;;;123.57;32.38;;;13.50;57.30;;;;;;5034775;28;20180;-65
2023/04/02 12:46:29;;;;;;;124.90;33.53;;;13.50;57.30;;;;;;5035735;28;20078;-65
2023/04/02 12:49:06;;;;;;;117.50;34.95;;;13.50;57.40;;;;;;5037473;28;20557;-64
2023/04/02 12:51:34;;;;;;;106.93;35.97;;;13.50;57.40;;;;;;5039249;28;20092;-62
2023/04/02 12:54:01;;;;;;;124.22;36.13;;;13.50;57.40;;;;;;5039594;28;20329;-63
2023/04/02 12:56:28;;;;;;;121.25;36.80;;;13.50;57.30;;;;;;5034399;28;20153;-62
2023/04/02 12:59:00;;;;;;;107.25;35.45;;;13.50;57.40;;;;;;5035640;28;20086;-64
2023/04/02 13:01:30;;;;;;;114.70;33.67;;;13.50;57.80;;;;;;5037149;28;20491;-64
2023/04/02 13:04:01;;;;;;;106.82;33.97;;;13.50;57.30;;;;;;5033268;28;20124;-64
2023/04/02 13:06:29;;;;;;;100.75;29.58;;;13.50;57.00;;;;;;5033627;28;20235;-64
2023/04/02 13:08:56;;;;;;;78.70;29.92;;;13.50;57.00;;;;;;5056902;28;20081;-64
2023/04/02 13:11:36;;;;;;;85.10;29.15;;;13.30;57.80;;;;;;5056271;28;20102;-62
2023/04/02 13:14:06;;;;;;;85.20;29.17;;;13.30;58.20;;;;;;5052123;28;20072;-65
2023/04/02 13:16:35;;;;;;;94.28;30.00;;;13.30;58.40;;;;;;5054753;28;20130;-61
2023/04/02 13:19:34;;;;;;;82.10;27.90;;;13.30;57.70;;;;;;5055630;28;20087;-64
2023/04/02 13:22:02;;;;;;;88.32;28.00;;;13.30;57.40;;;;;;5055670;28;20128;-63